sensor_id;sensor_type;location;lat;lon;timestamp;temperature;humidity
51719;DHT22;37795;53.236;5.704;2023-12-04T00:01:47;0.00;88.20
51719;DHT22;37795;53.236;5.704;2023-12-04T00:04:13;0.00;88.30
51719;DHT22;37795;53.236;5.704;2023-12-04T00:06:41;0.00;88.30
51719;DHT22;37795;53.236;5.704;2023-12-04T00:09:06;0.00;88.40
51719;DHT22;37795;53.236;5.704;2023-12-04T00:11:32;0.00;88.50
51719;DHT22;37795;53.236;5.704;2023-12-04T00:13:58;0.00;88.40
51719;DHT22;37795;53.236;5.704;2023-12-04T00:16:24;0.00;88.50
51719;DHT22;37795;53.236;5.704;2023-12-04T00:18:50;0.00;88.40
51719;DHT22;37795;53.236;5.704;2023-12-04T00:21:16;0.00;88.50
51719;DHT22;37795;53.236;5.704;2023-12-04T00:23:41;0.00;88.50
51719;DHT22;37795;53.236;5.704;2023-12-04T00:26:07;0.10;88.60
51719;DHT22;37795;53.236;5.704;2023-12-04T00:28:36;0.10;88.50
51719;DHT22;37795;53.236;5.704;2023-12-04T00:31:02;0.00;88.60
51719;DHT22;37795;53.236;5.704;2023-12-04T00:33:28;0.00;88.60
51719;DHT22;37795;53.236;5.704;2023-12-04T00:35:54;0.00;88.70
51719;DHT22;37795;53.236;5.704;2023-12-04T00:38:19;0.00;88.60
51719;DHT22;37795;53.236;5.704;2023-12-04T00:40:45;0.10;88.80
51719;DHT22;37795;53.236;5.704;2023-12-04T00:43:11;0.00;88.60
51719;DHT22;37795;53.236;5.704;2023-12-04T00:45:36;0.00;88.60
51719;DHT22;37795;53.236;5.704;2023-12-04T00:48:03;0.00;88.60
51719;DHT22;37795;53.236;5.704;2023-12-04T00:50:28;0.00;88.60
51719;DHT22;37795;53.236;5.704;2023-12-04T00:52:54;0.10;88.80
51719;DHT22;37795;53.236;5.704;2023-12-04T00:55:20;0.00;88.80
51719;DHT22;37795;53.236;5.704;2023-12-04T00:57:46;0.00;88.80
51719;DHT22;37795;53.236;5.704;2023-12-04T01:00:12;0.00;88.70
51719;DHT22;37795;53.236;5.704;2023-12-04T01:02:38;0.00;88.80
51719;DHT22;37795;53.236;5.704;2023-12-04T01:05:04;0.10;88.80
51719;DHT22;37795;53.236;5.704;2023-12-04T01:07:29;0.10;88.80
51719;DHT22;37795;53.236;5.704;2023-12-04T01:09:55;0.10;88.70
51719;DHT22;37795;53.236;5.704;2023-12-04T01:12:21;0.10;88.80
51719;DHT22;37795;53.236;5.704;2023-12-04T01:14:47;0.10;88.90
51719;DHT22;37795;53.236;5.704;2023-12-04T01:17:13;0.10;88.60
51719;DHT22;37795;53.236;5.704;2023-12-04T01:19:38;0.10;88.70
51719;DHT22;37795;53.236;5.704;2023-12-04T01:22:05;0.10;88.60
51719;DHT22;37795;53.236;5.704;2023-12-04T01:24:30;0.10;88.70
51719;DHT22;37795;53.236;5.704;2023-12-04T01:26:56;0.20;88.70
51719;DHT22;37795;53.236;5.704;2023-12-04T01:29:22;0.10;88.50
51719;DHT22;37795;53.236;5.704;2023-12-04T01:31:47;0.10;88.50
51719;DHT22;37795;53.236;5.704;2023-12-04T01:34:13;0.20;88.40
51719;DHT22;37795;53.236;5.704;2023-12-04T01:36:42;0.10;88.40
51719;DHT22;37795;53.236;5.704;2023-12-04T01:39:08;0.20;88.40
51719;DHT22;37795;53.236;5.704;2023-12-04T01:41:33;0.20;88.30
51719;DHT22;37795;53.236;5.704;2023-12-04T01:43:59;0.20;88.20
51719;DHT22;37795;53.236;5.704;2023-12-04T01:46:25;0.20;88.30
51719;DHT22;37795;53.236;5.704;2023-12-04T01:48:52;0.20;88.20
51719;DHT22;37795;53.236;5.704;2023-12-04T01:51:19;0.20;88.10
51719;DHT22;37795;53.236;5.704;2023-12-04T01:53:46;0.20;88.10
51719;DHT22;37795;53.236;5.704;2023-12-04T01:56:13;0.20;88.00
51719;DHT22;37795;53.236;5.704;2023-12-04T01:58:40;0.20;88.00
51719;DHT22;37795;53.236;5.704;2023-12-04T02:01:06;0.20;87.90
51719;DHT22;37795;53.236;5.704;2023-12-04T02:03:32;0.20;87.90
51719;DHT22;37795;53.236;5.704;2023-12-04T02:06:02;0.20;87.90
51719;DHT22;37795;53.236;5.704;2023-12-04T02:08:29;0.30;87.90
51719;DHT22;37795;53.236;5.704;2023-12-04T02:10:55;0.30;87.80
51719;DHT22;37795;53.236;5.704;2023-12-04T02:13:21;0.20;87.70
51719;DHT22;37795;53.236;5.704;2023-12-04T02:15:49;0.30;88.00
51719;DHT22;37795;53.236;5.704;2023-12-04T02:18:17;0.30;87.80
51719;DHT22;37795;53.236;5.704;2023-12-04T02:20:43;0.20;87.80
51719;DHT22;37795;53.236;5.704;2023-12-04T02:23:09;0.30;87.80
51719;DHT22;37795;53.236;5.704;2023-12-04T02:25:35;0.30;87.80
51719;DHT22;37795;53.236;5.704;2023-12-04T02:28:02;0.30;87.70
51719;DHT22;37795;53.236;5.704;2023-12-04T02:30:30;0.30;87.60
51719;DHT22;37795;53.236;5.704;2023-12-04T02:32:58;0.30;87.60
51719;DHT22;37795;53.236;5.704;2023-12-04T02:35:27;0.20;87.60
51719;DHT22;37795;53.236;5.704;2023-12-04T02:37:54;0.20;87.40
51719;DHT22;37795;53.236;5.704;2023-12-04T02:40:20;0.30;87.60
51719;DHT22;37795;53.236;5.704;2023-12-04T02:42:45;0.20;87.50
51719;DHT22;37795;53.236;5.704;2023-12-04T02:45:11;0.30;87.70
51719;DHT22;37795;53.236;5.704;2023-12-04T02:47:37;0.20;87.50
51719;DHT22;37795;53.236;5.704;2023-12-04T02:50:03;0.30;87.40
51719;DHT22;37795;53.236;5.704;2023-12-04T02:52:29;0.30;87.50
51719;DHT22;37795;53.236;5.704;2023-12-04T02:54:55;0.30;87.30
51719;DHT22;37795;53.236;5.704;2023-12-04T02:57:20;0.30;87.20
51719;DHT22;37795;53.236;5.704;2023-12-04T02:59:48;0.30;87.40
51719;DHT22;37795;53.236;5.704;2023-12-04T03:02:14;0.30;87.10
51719;DHT22;37795;53.236;5.704;2023-12-04T03:04:39;0.30;87.10
51719;DHT22;37795;53.236;5.704;2023-12-04T03:07:05;0.30;87.10
51719;DHT22;37795;53.236;5.704;2023-12-04T03:09:31;0.40;87.10
51719;DHT22;37795;53.236;5.704;2023-12-04T03:11:56;0.40;86.90
51719;DHT22;37795;53.236;5.704;2023-12-04T03:14:22;0.40;86.90
51719;DHT22;37795;53.236;5.704;2023-12-04T03:16:49;0.30;86.90
51719;DHT22;37795;53.236;5.704;2023-12-04T03:19:14;0.30;87.00
51719;DHT22;37795;53.236;5.704;2023-12-04T03:21:40;0.30;87.00
51719;DHT22;37795;53.236;5.704;2023-12-04T03:24:06;0.30;86.90
51719;DHT22;37795;53.236;5.704;2023-12-04T03:26:31;0.30;87.00
51719;DHT22;37795;53.236;5.704;2023-12-04T03:28:57;0.30;87.00
51719;DHT22;37795;53.236;5.704;2023-12-04T03:31:23;0.30;86.90
51719;DHT22;37795;53.236;5.704;2023-12-04T03:33:49;0.30;86.90
51719;DHT22;37795;53.236;5.704;2023-12-04T03:36:14;0.30;86.90
51719;DHT22;37795;53.236;5.704;2023-12-04T03:38:40;0.30;87.00
51719;DHT22;37795;53.236;5.704;2023-12-04T03:41:15;0.30;87.00
51719;DHT22;37795;53.236;5.704;2023-12-04T03:43:41;0.30;87.10
51719;DHT22;37795;53.236;5.704;2023-12-04T03:46:07;0.30;87.00
51719;DHT22;37795;53.236;5.704;2023-12-04T03:48:33;0.30;87.10
51719;DHT22;37795;53.236;5.704;2023-12-04T03:50:59;0.30;87.20
51719;DHT22;37795;53.236;5.704;2023-12-04T03:53:26;0.30;86.90
51719;DHT22;37795;53.236;5.704;2023-12-04T03:55:52;0.30;87.00
51719;DHT22;37795;53.236;5.704;2023-12-04T03:58:17;0.30;86.80
51719;DHT22;37795;53.236;5.704;2023-12-04T04:00:43;0.40;86.80
51719;DHT22;37795;53.236;5.704;2023-12-04T04:03:09;0.30;86.80
51719;DHT22;37795;53.236;5.704;2023-12-04T04:05:35;0.30;86.70
51719;DHT22;37795;53.236;5.704;2023-12-04T04:08:02;0.40;86.70
51719;DHT22;37795;53.236;5.704;2023-12-04T04:10:28;0.40;86.70
51719;DHT22;37795;53.236;5.704;2023-12-04T04:12:53;0.30;86.50
51719;DHT22;37795;53.236;5.704;2023-12-04T04:15:19;0.30;86.60
51719;DHT22;37795;53.236;5.704;2023-12-04T04:17:45;0.30;86.60
51719;DHT22;37795;53.236;5.704;2023-12-04T04:20:11;0.40;86.60
51719;DHT22;37795;53.236;5.704;2023-12-04T04:22:37;0.40;86.70
51719;DHT22;37795;53.236;5.704;2023-12-04T04:25:08;0.40;86.60
51719;DHT22;37795;53.236;5.704;2023-12-04T04:27:34;0.40;86.50
51719;DHT22;37795;53.236;5.704;2023-12-04T04:30:00;0.40;86.40
51719;DHT22;37795;53.236;5.704;2023-12-04T04:32:26;0.40;86.40
51719;DHT22;37795;53.236;5.704;2023-12-04T04:34:52;0.40;86.30
51719;DHT22;37795;53.236;5.704;2023-12-04T04:37:19;0.40;86.10
51719;DHT22;37795;53.236;5.704;2023-12-04T04:39:44;0.30;85.90
51719;DHT22;37795;53.236;5.704;2023-12-04T04:42:10;0.40;86.00
51719;DHT22;37795;53.236;5.704;2023-12-04T04:44:36;0.40;85.90
51719;DHT22;37795;53.236;5.704;2023-12-04T04:47:01;0.40;85.90
51719;DHT22;37795;53.236;5.704;2023-12-04T04:49:27;0.40;85.90
51719;DHT22;37795;53.236;5.704;2023-12-04T04:51:54;0.40;85.90
51719;DHT22;37795;53.236;5.704;2023-12-04T04:54:20;0.40;85.70
51719;DHT22;37795;53.236;5.704;2023-12-04T04:56:45;0.40;85.80
51719;DHT22;37795;53.236;5.704;2023-12-04T04:59:11;0.30;85.70
51719;DHT22;37795;53.236;5.704;2023-12-04T05:01:36;0.40;85.60
51719;DHT22;37795;53.236;5.704;2023-12-04T05:04:02;0.30;85.60
51719;DHT22;37795;53.236;5.704;2023-12-04T05:06:28;0.40;85.60
51719;DHT22;37795;53.236;5.704;2023-12-04T05:08:55;0.40;85.50
51719;DHT22;37795;53.236;5.704;2023-12-04T05:11:21;0.30;85.40
51719;DHT22;37795;53.236;5.704;2023-12-04T05:13:47;0.40;85.30
51719;DHT22;37795;53.236;5.704;2023-12-04T05:16:13;0.40;85.30
51719;DHT22;37795;53.236;5.704;2023-12-04T05:18:39;0.40;85.00
51719;DHT22;37795;53.236;5.704;2023-12-04T05:21:09;0.40;85.20
51719;DHT22;37795;53.236;5.704;2023-12-04T05:23:35;0.40;84.80
51719;DHT22;37795;53.236;5.704;2023-12-04T05:26:00;0.40;84.70
51719;DHT22;37795;53.236;5.704;2023-12-04T05:28:26;0.40;84.70
51719;DHT22;37795;53.236;5.704;2023-12-04T05:30:52;0.40;84.70
51719;DHT22;37795;53.236;5.704;2023-12-04T05:33:17;0.40;84.60
51719;DHT22;37795;53.236;5.704;2023-12-04T05:35:43;0.40;84.50
51719;DHT22;37795;53.236;5.704;2023-12-04T05:38:09;0.50;84.30
51719;DHT22;37795;53.236;5.704;2023-12-04T05:40:34;0.40;84.20
51719;DHT22;37795;53.236;5.704;2023-12-04T05:43:00;0.40;84.20
51719;DHT22;37795;53.236;5.704;2023-12-04T05:45:26;0.50;84.20
51719;DHT22;37795;53.236;5.704;2023-12-04T05:47:51;0.50;84.00
51719;DHT22;37795;53.236;5.704;2023-12-04T05:50:18;0.50;84.00
51719;DHT22;37795;53.236;5.704;2023-12-04T05:52:44;0.50;84.10
51719;DHT22;37795;53.236;5.704;2023-12-04T05:55:10;0.50;83.90
51719;DHT22;37795;53.236;5.704;2023-12-04T05:57:38;0.50;83.90
51719;DHT22;37795;53.236;5.704;2023-12-04T06:00:05;0.50;83.80
51719;DHT22;37795;53.236;5.704;2023-12-04T06:02:31;0.50;83.80
51719;DHT22;37795;53.236;5.704;2023-12-04T06:04:57;0.50;83.60
51719;DHT22;37795;53.236;5.704;2023-12-04T06:07:23;0.50;83.80
51719;DHT22;37795;53.236;5.704;2023-12-04T06:09:49;0.50;83.80
51719;DHT22;37795;53.236;5.704;2023-12-04T06:12:14;0.50;83.80
51719;DHT22;37795;53.236;5.704;2023-12-04T06:14:40;0.50;83.50
51719;DHT22;37795;53.236;5.704;2023-12-04T06:17:06;0.50;83.40
51719;DHT22;37795;53.236;5.704;2023-12-04T06:19:32;0.50;83.40
51719;DHT22;37795;53.236;5.704;2023-12-04T06:21:57;0.50;83.20
51719;DHT22;37795;53.236;5.704;2023-12-04T06:24:24;0.60;83.20
51719;DHT22;37795;53.236;5.704;2023-12-04T06:26:50;0.50;83.10
51719;DHT22;37795;53.236;5.704;2023-12-04T06:29:17;0.50;83.10
51719;DHT22;37795;53.236;5.704;2023-12-04T06:31:43;0.50;83.10
51719;DHT22;37795;53.236;5.704;2023-12-04T06:34:09;0.50;83.00
51719;DHT22;37795;53.236;5.704;2023-12-04T06:36:38;0.50;83.10
51719;DHT22;37795;53.236;5.704;2023-12-04T06:39:11;0.50;82.90
51719;DHT22;37795;53.236;5.704;2023-12-04T06:41:38;0.50;83.00
51719;DHT22;37795;53.236;5.704;2023-12-04T06:44:05;0.50;83.00
51719;DHT22;37795;53.236;5.704;2023-12-04T06:52:49;1.00;81.20
51719;DHT22;37795;53.236;5.704;2023-12-04T06:55:15;0.50;82.60
51719;DHT22;37795;53.236;5.704;2023-12-04T06:57:41;0.50;82.80
51719;DHT22;37795;53.236;5.704;2023-12-04T07:00:07;0.50;82.80
51719;DHT22;37795;53.236;5.704;2023-12-04T07:02:33;0.50;82.70
51719;DHT22;37795;53.236;5.704;2023-12-04T07:04:59;0.50;82.60
51719;DHT22;37795;53.236;5.704;2023-12-04T07:07:25;0.50;82.70
51719;DHT22;37795;53.236;5.704;2023-12-04T07:09:50;0.50;82.70
51719;DHT22;37795;53.236;5.704;2023-12-04T07:12:16;0.50;82.50
51719;DHT22;37795;53.236;5.704;2023-12-04T07:14:42;0.50;82.70
51719;DHT22;37795;53.236;5.704;2023-12-04T07:17:07;0.50;82.60
51719;DHT22;37795;53.236;5.704;2023-12-04T07:19:33;0.50;82.40
51719;DHT22;37795;53.236;5.704;2023-12-04T07:21:59;0.50;82.60
51719;DHT22;37795;53.236;5.704;2023-12-04T07:24:24;0.50;82.60
51719;DHT22;37795;53.236;5.704;2023-12-04T07:26:52;0.50;82.50
51719;DHT22;37795;53.236;5.704;2023-12-04T07:29:17;0.60;82.40
51719;DHT22;37795;53.236;5.704;2023-12-04T07:31:43;0.60;82.30
51719;DHT22;37795;53.236;5.704;2023-12-04T07:34:09;0.60;82.20
51719;DHT22;37795;53.236;5.704;2023-12-04T07:36:35;0.60;82.30
51719;DHT22;37795;53.236;5.704;2023-12-04T07:39:00;0.60;82.20
51719;DHT22;37795;53.236;5.704;2023-12-04T07:41:26;0.60;82.30
51719;DHT22;37795;53.236;5.704;2023-12-04T07:43:52;0.60;82.10
51719;DHT22;37795;53.236;5.704;2023-12-04T07:46:17;0.50;81.90
51719;DHT22;37795;53.236;5.704;2023-12-04T07:48:43;0.60;82.00
51719;DHT22;37795;53.236;5.704;2023-12-04T07:51:09;0.60;81.80
51719;DHT22;37795;53.236;5.704;2023-12-04T07:53:35;0.60;81.80
51719;DHT22;37795;53.236;5.704;2023-12-04T07:56:02;0.60;81.70
51719;DHT22;37795;53.236;5.704;2023-12-04T07:58:29;0.60;81.60
51719;DHT22;37795;53.236;5.704;2023-12-04T08:00:55;0.60;81.50
51719;DHT22;37795;53.236;5.704;2023-12-04T08:03:21;0.60;81.60
51719;DHT22;37795;53.236;5.704;2023-12-04T08:05:51;0.60;81.50
51719;DHT22;37795;53.236;5.704;2023-12-04T08:08:17;0.60;81.30
51719;DHT22;37795;53.236;5.704;2023-12-04T08:10:43;0.60;81.00
51719;DHT22;37795;53.236;5.704;2023-12-04T08:13:09;0.60;81.00
51719;DHT22;37795;53.236;5.704;2023-12-04T08:15:34;0.60;80.90
51719;DHT22;37795;53.236;5.704;2023-12-04T08:18:00;0.60;80.60
51719;DHT22;37795;53.236;5.704;2023-12-04T08:20:26;0.60;80.80
51719;DHT22;37795;53.236;5.704;2023-12-04T08:22:52;0.60;80.50
51719;DHT22;37795;53.236;5.704;2023-12-04T08:25:17;0.70;80.70
51719;DHT22;37795;53.236;5.704;2023-12-04T08:27:43;0.70;80.10
51719;DHT22;37795;53.236;5.704;2023-12-04T08:30:09;0.70;80.00
51719;DHT22;37795;53.236;5.704;2023-12-04T08:32:35;0.70;79.80
51719;DHT22;37795;53.236;5.704;2023-12-04T08:35:01;0.70;79.60
51719;DHT22;37795;53.236;5.704;2023-12-04T08:37:27;0.80;79.50
51719;DHT22;37795;53.236;5.704;2023-12-04T08:39:52;0.80;79.60
51719;DHT22;37795;53.236;5.704;2023-12-04T08:42:18;0.80;79.50
51719;DHT22;37795;53.236;5.704;2023-12-04T08:44:44;0.80;78.90
51719;DHT22;37795;53.236;5.704;2023-12-04T08:47:13;0.80;79.20
51719;DHT22;37795;53.236;5.704;2023-12-04T08:49:40;0.90;78.90
51719;DHT22;37795;53.236;5.704;2023-12-04T08:52:09;0.80;78.50
51719;DHT22;37795;53.236;5.704;2023-12-04T08:54:38;0.90;78.50
51719;DHT22;37795;53.236;5.704;2023-12-04T08:57:04;0.90;78.30
51719;DHT22;37795;53.236;5.704;2023-12-04T08:59:30;0.90;78.00
51719;DHT22;37795;53.236;5.704;2023-12-04T09:01:56;1.00;77.70
51719;DHT22;37795;53.236;5.704;2023-12-04T09:04:21;1.00;77.60
51719;DHT22;37795;53.236;5.704;2023-12-04T09:06:47;0.90;77.00
51719;DHT22;37795;53.236;5.704;2023-12-04T09:09:13;1.00;77.10
51719;DHT22;37795;53.236;5.704;2023-12-04T09:11:44;1.00;76.80
51719;DHT22;37795;53.236;5.704;2023-12-04T09:14:10;1.00;76.50
51719;DHT22;37795;53.236;5.704;2023-12-04T09:16:36;1.10;76.40
51719;DHT22;37795;53.236;5.704;2023-12-04T09:19:02;1.10;76.10
51719;DHT22;37795;53.236;5.704;2023-12-04T09:21:28;1.10;76.10
51719;DHT22;37795;53.236;5.704;2023-12-04T09:23:54;1.10;75.80
51719;DHT22;37795;53.236;5.704;2023-12-04T09:26:19;1.10;75.80
51719;DHT22;37795;53.236;5.704;2023-12-04T09:28:45;1.10;75.60
51719;DHT22;37795;53.236;5.704;2023-12-04T09:31:11;1.10;75.20
51719;DHT22;37795;53.236;5.704;2023-12-04T09:33:37;1.10;75.10
51719;DHT22;37795;53.236;5.704;2023-12-04T09:36:03;1.10;75.20
51719;DHT22;37795;53.236;5.704;2023-12-04T09:38:29;1.10;75.00
51719;DHT22;37795;53.236;5.704;2023-12-04T09:40:59;1.10;75.10
51719;DHT22;37795;53.236;5.704;2023-12-04T09:43:25;1.10;75.10
51719;DHT22;37795;53.236;5.704;2023-12-04T09:45:52;1.10;74.80
51719;DHT22;37795;53.236;5.704;2023-12-04T09:48:18;1.10;74.60
51719;DHT22;37795;53.236;5.704;2023-12-04T09:50:45;1.10;74.80
51719;DHT22;37795;53.236;5.704;2023-12-04T09:53:12;1.10;74.10
51719;DHT22;37795;53.236;5.704;2023-12-04T09:55:40;1.10;74.10
51719;DHT22;37795;53.236;5.704;2023-12-04T09:58:05;1.20;74.10
51719;DHT22;37795;53.236;5.704;2023-12-04T10:00:32;1.30;74.20
51719;DHT22;37795;53.236;5.704;2023-12-04T10:02:58;1.20;73.40
51719;DHT22;37795;53.236;5.704;2023-12-04T10:05:25;1.30;73.40
51719;DHT22;37795;53.236;5.704;2023-12-04T10:07:51;1.30;72.90
51719;DHT22;37795;53.236;5.704;2023-12-04T10:10:16;1.40;73.10
51719;DHT22;37795;53.236;5.704;2023-12-04T10:12:43;1.30;72.70
51719;DHT22;37795;53.236;5.704;2023-12-04T10:15:10;1.40;73.00
51719;DHT22;37795;53.236;5.704;2023-12-04T10:17:38;1.40;72.70
51719;DHT22;37795;53.236;5.704;2023-12-04T10:20:12;1.50;72.20
51719;DHT22;37795;53.236;5.704;2023-12-04T10:23:01;1.50;71.90
51719;DHT22;37795;53.236;5.704;2023-12-04T10:25:29;1.50;71.70
51719;DHT22;37795;53.236;5.704;2023-12-04T10:28:15;1.60;71.30
51719;DHT22;37795;53.236;5.704;2023-12-04T10:30:41;1.70;70.90
51719;DHT22;37795;53.236;5.704;2023-12-04T10:33:08;1.70;70.80
51719;DHT22;37795;53.236;5.704;2023-12-04T10:35:35;1.80;70.70
51719;DHT22;37795;53.236;5.704;2023-12-04T10:38:06;1.70;70.60
51719;DHT22;37795;53.236;5.704;2023-12-04T10:40:33;1.90;71.00
51719;DHT22;37795;53.236;5.704;2023-12-04T10:43:18;1.90;70.10
51719;DHT22;37795;53.236;5.704;2023-12-04T10:52:49;2.20;69.90
51719;DHT22;37795;53.236;5.704;2023-12-04T10:55:18;1.90;70.00
51719;DHT22;37795;53.236;5.704;2023-12-04T10:57:43;1.90;69.70
51719;DHT22;37795;53.236;5.704;2023-12-04T11:00:11;2.00;69.80
51719;DHT22;37795;53.236;5.704;2023-12-04T11:02:39;2.00;68.80
51719;DHT22;37795;53.236;5.704;2023-12-04T11:05:14;2.00;69.00
51719;DHT22;37795;53.236;5.704;2023-12-04T11:07:47;2.00;68.90
51719;DHT22;37795;53.236;5.704;2023-12-04T11:10:13;2.10;68.90
51719;DHT22;37795;53.236;5.704;2023-12-04T11:12:44;2.10;69.10
51719;DHT22;37795;53.236;5.704;2023-12-04T11:15:14;2.10;68.80
51719;DHT22;37795;53.236;5.704;2023-12-04T11:17:43;2.10;68.50
51719;DHT22;37795;53.236;5.704;2023-12-04T11:20:13;2.20;68.30
51719;DHT22;37795;53.236;5.704;2023-12-04T11:22:43;2.20;68.40
51719;DHT22;37795;53.236;5.704;2023-12-04T11:25:13;2.40;68.80
51719;DHT22;37795;53.236;5.704;2023-12-04T11:27:40;2.50;68.40
51719;DHT22;37795;53.236;5.704;2023-12-04T11:30:07;2.40;68.20
51719;DHT22;37795;53.236;5.704;2023-12-04T11:32:44;2.30;67.60
51719;DHT22;37795;53.236;5.704;2023-12-04T11:35:14;2.30;67.90
51719;DHT22;37795;53.236;5.704;2023-12-04T11:37:42;2.30;68.40
51719;DHT22;37795;53.236;5.704;2023-12-04T11:40:11;2.20;68.40
51719;DHT22;37795;53.236;5.704;2023-12-04T11:42:38;2.30;68.10
51719;DHT22;37795;53.236;5.704;2023-12-04T11:45:05;2.20;68.40
51719;DHT22;37795;53.236;5.704;2023-12-04T11:47:55;2.10;68.20
51719;DHT22;37795;53.236;5.704;2023-12-04T11:50:22;2.00;68.10
51719;DHT22;37795;53.236;5.704;2023-12-04T11:52:50;2.10;68.70
51719;DHT22;37795;53.236;5.704;2023-12-04T11:55:17;2.10;69.20
51719;DHT22;37795;53.236;5.704;2023-12-04T11:57:43;2.20;69.40
51719;DHT22;37795;53.236;5.704;2023-12-04T12:05:22;2.10;69.30
51719;DHT22;37795;53.236;5.704;2023-12-04T12:07:48;2.10;69.40
51719;DHT22;37795;53.236;5.704;2023-12-04T12:10:15;2.00;69.30
51719;DHT22;37795;53.236;5.704;2023-12-04T12:12:43;2.10;69.20
51719;DHT22;37795;53.236;5.704;2023-12-04T12:15:12;2.10;69.10
51719;DHT22;37795;53.236;5.704;2023-12-04T12:17:39;2.10;69.20
51719;DHT22;37795;53.236;5.704;2023-12-04T12:20:10;2.10;69.30
51719;DHT22;37795;53.236;5.704;2023-12-04T12:22:37;2.00;69.20
51719;DHT22;37795;53.236;5.704;2023-12-04T12:25:13;2.00;69.20
51719;DHT22;37795;53.236;5.704;2023-12-04T12:27:39;2.00;69.70
51719;DHT22;37795;53.236;5.704;2023-12-04T12:30:06;2.10;69.70
51719;DHT22;37795;53.236;5.704;2023-12-04T12:32:33;2.10;69.90
51719;DHT22;37795;53.236;5.704;2023-12-04T12:34:59;2.00;69.90
51719;DHT22;37795;53.236;5.704;2023-12-04T12:37:25;2.00;69.90
51719;DHT22;37795;53.236;5.704;2023-12-04T12:39:51;2.00;69.90
51719;DHT22;37795;53.236;5.704;2023-12-04T12:42:28;2.10;70.40
51719;DHT22;37795;53.236;5.704;2023-12-04T12:44:54;2.10;70.60
51719;DHT22;37795;53.236;5.704;2023-12-04T12:47:23;2.00;70.20
51719;DHT22;37795;53.236;5.704;2023-12-04T12:49:49;2.00;70.00
51719;DHT22;37795;53.236;5.704;2023-12-04T12:52:15;2.00;70.40
51719;DHT22;37795;53.236;5.704;2023-12-04T12:54:42;2.00;71.00
51719;DHT22;37795;53.236;5.704;2023-12-04T12:57:09;2.10;71.00
51719;DHT22;37795;53.236;5.704;2023-12-04T12:59:38;2.00;70.80
51719;DHT22;37795;53.236;5.704;2023-12-04T13:02:05;2.00;70.40
51719;DHT22;37795;53.236;5.704;2023-12-04T13:04:42;2.00;70.80
51719;DHT22;37795;53.236;5.704;2023-12-04T13:07:07;2.00;70.80
51719;DHT22;37795;53.236;5.704;2023-12-04T13:09:34;2.00;71.00
51719;DHT22;37795;53.236;5.704;2023-12-04T13:12:03;2.10;70.90
51719;DHT22;37795;53.236;5.704;2023-12-04T13:14:30;2.00;70.70
51719;DHT22;37795;53.236;5.704;2023-12-04T13:16:56;2.10;70.70
51719;DHT22;37795;53.236;5.704;2023-12-04T13:19:23;2.10;70.80
51719;DHT22;37795;53.236;5.704;2023-12-04T13:21:49;2.10;70.80
51719;DHT22;37795;53.236;5.704;2023-12-04T13:24:15;2.10;70.50
51719;DHT22;37795;53.236;5.704;2023-12-04T13:26:41;2.00;70.50
51719;DHT22;37795;53.236;5.704;2023-12-04T13:29:06;2.00;70.40
51719;DHT22;37795;53.236;5.704;2023-12-04T13:31:33;2.10;70.50
51719;DHT22;37795;53.236;5.704;2023-12-04T13:34:00;2.10;70.90
51719;DHT22;37795;53.236;5.704;2023-12-04T13:36:25;2.00;70.70
51719;DHT22;37795;53.236;5.704;2023-12-04T13:38:52;2.10;71.10
51719;DHT22;37795;53.236;5.704;2023-12-04T13:41:19;2.10;71.20
51719;DHT22;37795;53.236;5.704;2023-12-04T13:44:03;2.00;70.90
51719;DHT22;37795;53.236;5.704;2023-12-04T13:46:29;2.00;71.10
51719;DHT22;37795;53.236;5.704;2023-12-04T13:48:56;2.10;70.90
51719;DHT22;37795;53.236;5.704;2023-12-04T13:51:22;2.10;71.00
51719;DHT22;37795;53.236;5.704;2023-12-04T13:53:48;2.10;71.00
51719;DHT22;37795;53.236;5.704;2023-12-04T13:56:16;2.10;71.00
51719;DHT22;37795;53.236;5.704;2023-12-04T13:59:00;2.10;71.00
51719;DHT22;37795;53.236;5.704;2023-12-04T14:01:27;2.10;70.70
51719;DHT22;37795;53.236;5.704;2023-12-04T14:03:56;2.10;70.80
51719;DHT22;37795;53.236;5.704;2023-12-04T14:06:30;2.10;71.00
51719;DHT22;37795;53.236;5.704;2023-12-04T14:08:56;2.10;70.80
51719;DHT22;37795;53.236;5.704;2023-12-04T14:11:22;2.10;71.10
51719;DHT22;37795;53.236;5.704;2023-12-04T14:13:48;2.10;70.70
51719;DHT22;37795;53.236;5.704;2023-12-04T14:16:15;2.10;70.50
51719;DHT22;37795;53.236;5.704;2023-12-04T14:18:41;2.00;70.80
51719;DHT22;37795;53.236;5.704;2023-12-04T14:21:08;2.10;71.00
51719;DHT22;37795;53.236;5.704;2023-12-04T14:23:34;2.20;71.10
51719;DHT22;37795;53.236;5.704;2023-12-04T14:26:00;2.10;70.70
51719;DHT22;37795;53.236;5.704;2023-12-04T14:28:27;2.00;70.60
51719;DHT22;37795;53.236;5.704;2023-12-04T14:30:53;2.00;70.50
51719;DHT22;37795;53.236;5.704;2023-12-04T14:33:20;2.20;71.20
51719;DHT22;37795;53.236;5.704;2023-12-04T14:35:45;2.10;71.10
51719;DHT22;37795;53.236;5.704;2023-12-04T14:38:12;2.10;71.10
51719;DHT22;37795;53.236;5.704;2023-12-04T14:40:38;2.10;71.00
51719;DHT22;37795;53.236;5.704;2023-12-04T14:43:04;2.00;70.70
51719;DHT22;37795;53.236;5.704;2023-12-04T14:45:37;2.00;70.70
51719;DHT22;37795;53.236;5.704;2023-12-04T14:48:03;2.00;70.80
51719;DHT22;37795;53.236;5.704;2023-12-04T14:50:35;2.00;70.80
51719;DHT22;37795;53.236;5.704;2023-12-04T14:53:03;1.90;71.40
51719;DHT22;37795;53.236;5.704;2023-12-04T14:55:49;1.80;71.40
51719;DHT22;37795;53.236;5.704;2023-12-04T14:58:33;1.80;71.30
51719;DHT22;37795;53.236;5.704;2023-12-04T15:00:59;1.80;71.80
51719;DHT22;37795;53.236;5.704;2023-12-04T15:03:39;1.70;71.90
51719;DHT22;37795;53.236;5.704;2023-12-04T15:06:20;1.60;72.00
51719;DHT22;37795;53.236;5.704;2023-12-04T15:08:51;1.60;72.20
51719;DHT22;37795;53.236;5.704;2023-12-04T15:11:26;1.60;72.30
51719;DHT22;37795;53.236;5.704;2023-12-04T15:14:12;1.60;72.70
51719;DHT22;37795;53.236;5.704;2023-12-04T15:16:57;1.60;72.70
51719;DHT22;37795;53.236;5.704;2023-12-04T15:19:39;1.50;72.50
51719;DHT22;37795;53.236;5.704;2023-12-04T15:22:22;1.50;72.60
51719;DHT22;37795;53.236;5.704;2023-12-04T15:24:48;1.40;72.80
51719;DHT22;37795;53.236;5.704;2023-12-04T15:27:14;1.40;72.90
51719;DHT22;37795;53.236;5.704;2023-12-04T15:29:39;1.40;72.70
51719;DHT22;37795;53.236;5.704;2023-12-04T15:32:07;1.40;73.00
51719;DHT22;37795;53.236;5.704;2023-12-04T15:34:32;1.30;73.10
51719;DHT22;37795;53.236;5.704;2023-12-04T15:36:58;1.30;73.10
51719;DHT22;37795;53.236;5.704;2023-12-04T15:39:24;1.30;73.10
51719;DHT22;37795;53.236;5.704;2023-12-04T15:41:50;1.30;73.20
51719;DHT22;37795;53.236;5.704;2023-12-04T15:44:15;1.20;73.00
51719;DHT22;37795;53.236;5.704;2023-12-04T15:46:41;1.20;73.10
51719;DHT22;37795;53.236;5.704;2023-12-04T15:49:07;1.20;73.00
51719;DHT22;37795;53.236;5.704;2023-12-04T15:51:32;1.20;73.10
51719;DHT22;37795;53.236;5.704;2023-12-04T15:53:59;1.20;73.10
51719;DHT22;37795;53.236;5.704;2023-12-04T15:56:25;1.20;73.20
51719;DHT22;37795;53.236;5.704;2023-12-04T15:58:51;1.20;73.40
51719;DHT22;37795;53.236;5.704;2023-12-04T16:01:16;1.20;73.20
51719;DHT22;37795;53.236;5.704;2023-12-04T16:03:43;1.20;73.10